This is the latest recevied weather packets stored in our database for station/object KO6LQJ. If no packets are shown the sender has not sent any weather packets the latest 10 day(s).
| Time | Temp. | Humidity | Pressure | Rain* | Wind** | Luminosity | Snow |
|---|---|---|---|---|---|---|---|
| 1777916906 | 16.67° C | 58% | 1017.8 hPa | 0 mm | - | 39 W/m² | - |
| 1777916604 | 16.67° C | 58% | 1017.4 hPa | 0 mm | - | 36 W/m² | - |
| 1777916300 | 17.22° C | 57% | 1017.4 hPa | 0 mm | - | 47 W/m² | - |
| 1777915997 | 17.22° C | 56% | 1017 hPa | 0 mm | - | 58 W/m² | - |
| 1777915694 | 18.33° C | 54% | 1017.2 hPa | 0 mm | - | 88 W/m² | - |
| 1777915390 | 18.89° C | 53% | 1017.1 hPa | 0 mm | - | 104 W/m² | - |
| 1777915086 | 20° C | 50% | 1017.3 hPa | 0 mm | - | 952 W/m² | - |
| 1777914784 | 18.89° C | 55% | 1017.3 hPa | 0 mm | - | 822 W/m² | - |
| 1777914481 | 18.33° C | 57% | 1017.3 hPa | 0 mm | - | 865 W/m² | - |
| 1777914178 | 17.78° C | 58% | 1017.3 hPa | 0 mm | - | 734 W/m² | - |
| 1777913874 | 18.89° C | 56% | 1017.4 hPa | 0 mm | - | 740 W/m² | - |
| 1777913571 | 18.89° C | 57% | 1017.4 hPa | 0 mm | - | 755 W/m² | - |
| 1777913266 | 19.44° C | 55% | 1017.5 hPa | 0 mm | - | 696 W/m² | - |
| 1777912964 | 18.89° C | 55% | 1017.3 hPa | 0 mm | - | 665 W/m² | - |
| 1777912660 | 17.78° C | 59% | 1017.6 hPa | 0 mm | - | 667 W/m² | - |
| 1777912356 | 16.11° C | 63% | 1017.3 hPa | 0 mm | - | 81 W/m² | - |
| 1777912052 | 15.56° C | 64% | 1017.5 hPa | 0 mm | - | 459 W/m² | - |
| 1777911748 | 16.11° C | 64% | 1017.3 hPa | 0 mm | - | 75 W/m² | - |
| 1777911445 | 16.11° C | 64% | 1017.4 hPa | 0 mm | - | 62 W/m² | - |
| 1777911142 | 16.11° C | 65% | 1017.1 hPa | 0 mm | - | 75 W/m² | - |
| 1777910840 | 16.67° C | 64% | 1017.1 hPa | 0 mm | - | 102 W/m² | - |
| 1777910536 | 16.67° C | 64% | 1017.1 hPa | 0 mm | - | 122 W/m² | - |
| 1777910233 | 16.67° C | 64% | 1017.3 hPa | 0 mm | - | 470 W/m² | - |
| 1777909930 | 16.11° C | 66% | 1017 hPa | 0 mm | - | 171 W/m² | - |
| 1777909627 | 16.11° C | 66% | 1016.9 hPa | 0 mm | - | 177 W/m² | - |
* Rain latest hour (hover to see other rain measurements)
** Current wind speed in m/s (hover to see current wind gust speed)